createdAt,value
2022-08-08T00:00:53.209Z,16.83
2022-08-08T00:03:20.202Z,16.50
2022-08-08T00:06:03.787Z,16.48
2022-08-08T00:08:40.724Z,16.41
2022-08-08T00:11:25.022Z,16.28
2022-08-08T00:14:17.225Z,16.25
2022-08-08T00:16:58.047Z,16.20
2022-08-08T00:19:32.588Z,16.22
2022-08-08T00:22:05.762Z,16.21
2022-08-08T00:24:46.741Z,16.16
2022-08-08T00:27:20.772Z,16.19
2022-08-08T00:29:58.357Z,16.24
2022-08-08T00:32:36.517Z,16.12
2022-08-08T00:35:43.330Z,15.91
2022-08-08T00:38:51.733Z,15.86
2022-08-08T00:42:07.907Z,15.86
2022-08-08T00:45:27.166Z,15.80
2022-08-08T00:48:43.746Z,15.59
2022-08-08T00:52:04.763Z,15.68
2022-08-08T00:55:10.068Z,15.70
2022-08-08T00:58:35.361Z,15.67
2022-08-08T01:01:29.438Z,15.54
2022-08-08T01:04:44.014Z,15.47
2022-08-08T01:07:55.298Z,15.42
2022-08-08T01:10:54.514Z,15.44
2022-08-08T01:13:46.013Z,15.51
2022-08-08T01:16:53.455Z,15.58
2022-08-08T01:22:48.557Z,15.45
2022-08-08T01:26:13.314Z,15.46
2022-08-08T01:29:08.762Z,15.38
2022-08-08T01:32:17.192Z,15.33
2022-08-08T01:35:14.884Z,15.31
2022-08-08T01:38:10.430Z,15.33
2022-08-08T01:40:48.606Z,15.25
2022-08-08T01:43:38.476Z,15.19
2022-08-08T01:46:27.119Z,15.17
2022-08-08T01:49:06.278Z,15.16
2022-08-08T01:52:12.875Z,15.05
2022-08-08T01:55:18.975Z,15.04
2022-08-08T01:58:13.280Z,15.06
2022-08-08T02:00:57.467Z,15.08
2022-08-08T02:03:55.003Z,15.02
2022-08-08T02:06:43.490Z,15.05
2022-08-08T02:10:01.997Z,15.05
2022-08-08T02:12:22.760Z,15.10
2022-08-08T02:14:59.288Z,15.14
2022-08-08T02:17:43.169Z,15.06
2022-08-08T02:21:00.913Z,15.07
2022-08-08T02:23:21.304Z,15.09
2022-08-08T02:26:00.809Z,15.17
2022-08-08T02:28:48.410Z,15.14
2022-08-08T02:31:58.013Z,15.11
2022-08-08T02:35:08.576Z,15.06
2022-08-08T02:37:58.516Z,14.97
2022-08-08T02:40:40.663Z,14.93
2022-08-08T02:44:37.208Z,14.88
2022-08-08T02:47:34.735Z,14.76
2022-08-08T02:50:35.556Z,14.69
2022-08-08T02:53:53.835Z,14.71
2022-08-08T02:57:05.079Z,14.67
2022-08-08T03:00:33.739Z,14.65
2022-08-08T03:05:00.810Z,14.69
2022-08-08T03:07:07.322Z,14.64
2022-08-08T03:10:17.631Z,14.61
2022-08-08T03:15:56.219Z,14.58
2022-08-08T03:16:48.382Z,14.53
2022-08-08T03:19:50.841Z,14.44
2022-08-08T03:22:38.546Z,14.45
2022-08-08T03:25:17.961Z,14.32
2022-08-08T03:27:56.282Z,14.27
2022-08-08T03:30:26.556Z,14.28
2022-08-08T03:33:54.928Z,14.31
2022-08-08T03:36:19.760Z,14.29
2022-08-08T03:39:14.376Z,14.31
2022-08-08T03:42:12.931Z,14.33
2022-08-08T03:44:38.792Z,14.21
2022-08-08T03:47:20.118Z,14.17
2022-08-08T03:50:01.196Z,14.15
2022-08-08T03:52:33.898Z,14.15
2022-08-08T03:55:19.806Z,14.13
2022-08-08T03:58:30.986Z,14.07
2022-08-08T04:01:02.637Z,14.03
2022-08-08T04:03:59.155Z,14.04
2022-08-08T04:06:30.545Z,13.99
2022-08-08T04:09:10.437Z,13.96
2022-08-08T04:11:58.191Z,13.96
2022-08-08T04:14:34.437Z,13.96
2022-08-08T04:17:06.969Z,13.91
2022-08-08T04:19:51.890Z,13.90
2022-08-08T04:22:24.244Z,13.85
2022-08-08T04:25:00.153Z,13.80
2022-08-08T04:28:03.677Z,13.72
2022-08-08T04:30:23.142Z,13.67
2022-08-08T04:32:52.541Z,13.61
2022-08-08T04:35:22.787Z,13.58
2022-08-08T04:37:52.799Z,13.63
2022-08-08T04:40:24.101Z,13.62
2022-08-08T04:42:57.380Z,13.60
2022-08-08T04:45:28.081Z,13.56
2022-08-08T04:48:00.478Z,13.56
2022-08-08T04:50:37.807Z,13.58
2022-08-08T04:53:52.210Z,13.50
2022-08-08T04:55:57.333Z,13.39
2022-08-08T04:58:25.917Z,13.41
2022-08-08T05:00:56.304Z,13.44
2022-08-08T05:04:07.929Z,13.21
2022-08-08T05:06:25.356Z,13.09
2022-08-08T05:09:02.251Z,13.03
2022-08-08T05:11:39.115Z,12.93
2022-08-08T05:14:08.743Z,12.96
2022-08-08T05:16:54.288Z,12.90
2022-08-08T05:20:10.851Z,12.87
2022-08-08T05:22:18.817Z,12.83
2022-08-08T05:24:48.773Z,12.88
2022-08-08T05:27:18.294Z,12.79
2022-08-08T05:29:51.912Z,12.73
2022-08-08T05:32:24.802Z,12.72
2022-08-08T05:35:04.748Z,12.80
2022-08-08T05:37:54.088Z,12.82
2022-08-08T05:40:27.867Z,12.84
2022-08-08T05:43:17.123Z,12.85
2022-08-08T05:46:03.873Z,12.93
2022-08-08T05:48:39.201Z,12.94
2022-08-08T05:51:14.487Z,12.96
2022-08-08T05:54:24.229Z,12.90
2022-08-08T05:56:42.576Z,12.87
2022-08-08T05:59:58.658Z,12.83
2022-08-08T06:02:34.264Z,12.79
2022-08-08T06:05:35.587Z,12.82
2022-08-08T06:08:01.939Z,12.97
2022-08-08T06:10:34.577Z,12.96
2022-08-08T06:13:05.005Z,12.96
2022-08-08T06:15:50.806Z,12.98
2022-08-08T06:18:24.031Z,13.06
2022-08-08T06:20:58.137Z,13.06
2022-08-08T06:23:48.646Z,13.10
2022-08-08T06:26:38.831Z,13.18
2022-08-08T06:29:10.790Z,13.24
2022-08-08T06:32:10.098Z,13.31
2022-08-08T06:34:42.558Z,13.31
2022-08-08T06:37:28.893Z,13.32
2022-08-08T06:40:12.135Z,13.40
2022-08-08T06:42:53.306Z,13.59
2022-08-08T06:45:23.399Z,13.64
2022-08-08T06:48:01.285Z,13.66
2022-08-08T06:50:33.959Z,13.72
2022-08-08T06:53:17.066Z,13.86
2022-08-08T06:56:02.124Z,13.83
2022-08-08T06:58:33.234Z,13.90
2022-08-08T07:01:52.346Z,13.96
2022-08-08T07:04:40.139Z,14.09
2022-08-08T07:06:51.565Z,14.20
2022-08-08T07:09:27.125Z,14.36
2022-08-08T07:12:12.847Z,14.47
2022-08-08T07:14:54.323Z,14.59
2022-08-08T07:17:40.101Z,14.60
2022-08-08T07:20:21.236Z,14.73
2022-08-08T07:23:04.582Z,14.78
2022-08-08T07:25:54.151Z,14.73
2022-08-08T07:28:31.616Z,14.73
2022-08-08T07:31:01.145Z,14.80
2022-08-08T07:33:37.967Z,14.88
2022-08-08T07:36:09.167Z,14.99
2022-08-08T07:38:39.196Z,15.09
2022-08-08T07:41:16.786Z,15.17
2022-08-08T07:43:56.391Z,15.22
2022-08-08T07:46:30.483Z,15.29
2022-08-08T07:48:59.487Z,15.44
2022-08-08T07:51:45.333Z,15.45
2022-08-08T07:54:27.238Z,15.54
2022-08-08T07:57:10.379Z,15.63
2022-08-08T07:59:52.075Z,15.62
2022-08-08T08:02:35.302Z,15.67
2022-08-08T08:05:14.946Z,15.80
2022-08-08T08:07:45.990Z,15.91
2022-08-08T08:10:30.458Z,15.96
2022-08-08T08:13:25.657Z,16.06
2022-08-08T08:16:17.093Z,16.17
2022-08-08T08:18:55.835Z,16.22
2022-08-08T08:21:44.505Z,16.23
2022-08-08T08:24:18.744Z,16.31
2022-08-08T08:26:52.828Z,16.43
2022-08-08T08:29:27.739Z,16.50
2022-08-08T08:31:59.235Z,16.59
2022-08-08T08:34:34.160Z,16.65
2022-08-08T08:37:08.303Z,16.70
2022-08-08T08:40:00.547Z,16.80
2022-08-08T08:42:31.964Z,16.88
2022-08-08T08:45:21.349Z,16.97
2022-08-08T08:47:58.486Z,16.99
2022-08-08T08:50:34.908Z,17.05
2022-08-08T08:53:28.201Z,17.16
2022-08-08T08:56:01.420Z,17.23
2022-08-08T08:58:35.723Z,17.28
2022-08-08T09:01:09.573Z,17.40
2022-08-08T09:03:46.675Z,17.52
2022-08-08T09:06:26.466Z,17.66
2022-08-08T09:09:05.505Z,17.76
2022-08-08T09:11:47.313Z,17.79
2022-08-08T09:14:28.731Z,17.90
2022-08-08T09:16:59.116Z,17.97
2022-08-08T09:21:59.114Z,17.94
2022-08-08T09:22:19.678Z,18.13
2022-08-08T09:24:58.464Z,18.26
2022-08-08T09:27:55.918Z,18.25
2022-08-08T09:30:22.025Z,18.33
2022-08-08T09:33:12.776Z,18.32
2022-08-08T09:35:49.955Z,18.33
2022-08-08T09:38:33.696Z,18.62
2022-08-08T09:41:06.509Z,18.86
2022-08-08T09:44:06.568Z,18.96
2022-08-08T09:46:45.310Z,19.09
2022-08-08T09:49:42.939Z,19.09
2022-08-08T09:52:57.680Z,18.99
2022-08-08T09:55:17.092Z,18.98
2022-08-08T09:57:55.773Z,19.02
2022-08-08T10:00:49.690Z,19.18
2022-08-08T10:03:20.186Z,19.17
2022-08-08T10:05:50.361Z,19.37
2022-08-08T10:08:19.025Z,19.36
2022-08-08T10:10:51.265Z,19.34
2022-08-08T10:13:25.986Z,19.43
2022-08-08T10:16:03.841Z,19.48
2022-08-08T10:18:34.625Z,19.62
2022-08-08T10:21:25.361Z,19.88
2022-08-08T10:23:58.974Z,19.92
2022-08-08T10:26:58.914Z,19.98
2022-08-08T10:29:25.030Z,20.08
2022-08-08T10:32:17.457Z,20.24
2022-08-08T10:35:00.404Z,20.40
2022-08-08T10:37:34.614Z,20.38
2022-08-08T10:40:16.457Z,20.49
2022-08-08T10:42:46.122Z,20.63
2022-08-08T10:45:17.083Z,20.72
2022-08-08T10:47:55.635Z,20.85
2022-08-08T10:50:32.670Z,20.92
2022-08-08T10:53:11.733Z,21.10
2022-08-08T10:55:46.673Z,21.14
2022-08-08T10:58:16.002Z,21.22
2022-08-08T11:00:53.593Z,21.48
2022-08-08T11:04:00.774Z,21.50
2022-08-08T11:06:34.151Z,21.54
2022-08-08T11:09:15.404Z,21.47
2022-08-08T11:12:04.599Z,21.63
2022-08-08T11:14:54.257Z,21.83
2022-08-08T11:17:59.386Z,22.06
2022-08-08T11:20:17.898Z,21.93
2022-08-08T11:22:52.329Z,21.95
2022-08-08T11:25:43.690Z,22.13
2022-08-08T11:28:15.834Z,22.07
2022-08-08T11:30:52.764Z,22.26
2022-08-08T11:33:52.058Z,22.59
2022-08-08T11:36:17.705Z,22.69
2022-08-08T11:38:55.284Z,22.41
2022-08-08T11:41:27.761Z,22.56
2022-08-08T11:44:01.617Z,22.80
2022-08-08T11:46:32.888Z,23.10
2022-08-08T11:49:05.320Z,22.95
2022-08-08T11:51:40.274Z,23.07
2022-08-08T11:54:32.009Z,23.05
2022-08-08T11:57:23.826Z,23.71
2022-08-08T12:00:02.553Z,23.95
2022-08-08T12:02:34.384Z,24.07
2022-08-08T12:05:06.741Z,23.59
2022-08-08T12:07:51.514Z,23.72
2022-08-08T12:10:23.142Z,23.88
2022-08-08T12:13:04.048Z,23.92
2022-08-08T12:15:41.891Z,23.99
2022-08-08T12:18:20.787Z,23.90
2022-08-08T12:20:53.042Z,24.22
2022-08-08T12:23:43.662Z,24.21
2022-08-08T12:26:35.834Z,24.50
2022-08-08T12:29:39.965Z,24.17
2022-08-08T12:32:13.368Z,24.53
2022-08-08T12:34:49.074Z,24.66
2022-08-08T12:37:22.311Z,23.98
2022-08-08T12:40:00.651Z,23.51
2022-08-08T12:42:47.582Z,23.80
2022-08-08T12:45:59.450Z,23.73
2022-08-08T12:48:35.716Z,24.18
2022-08-08T12:51:00.084Z,24.51
2022-08-08T12:53:36.493Z,24.75
2022-08-08T12:56:18.833Z,24.42
2022-08-08T12:58:51.613Z,24.41
2022-08-08T13:01:24.339Z,24.78
2022-08-08T13:03:54.334Z,24.79
2022-08-08T13:06:23.246Z,24.75
2022-08-08T13:08:56.472Z,24.93
2022-08-08T13:11:28.619Z,24.81
2022-08-08T13:14:16.736Z,24.79
2022-08-08T13:16:49.104Z,24.95
2022-08-08T13:19:20.492Z,25.09
2022-08-08T13:21:55.557Z,25.35
2022-08-08T13:24:42.051Z,25.47
2022-08-08T13:27:15.778Z,25.51
2022-08-08T13:29:53.647Z,25.74
2022-08-08T13:32:25.563Z,26.03
2022-08-08T13:34:56.070Z,26.09
2022-08-08T13:38:04.721Z,26.44
2022-08-08T13:40:27.215Z,24.89
2022-08-08T13:42:57.564Z,25.08
2022-08-08T13:45:27.072Z,25.56
2022-08-08T13:48:01.516Z,25.78
2022-08-08T13:50:49.097Z,25.71
2022-08-08T13:53:34.067Z,26.03
2022-08-08T13:56:11.051Z,25.81
2022-08-08T13:58:56.497Z,25.75
2022-08-08T14:01:41.690Z,25.87
2022-08-08T14:04:27.598Z,25.75
2022-08-08T14:07:06.246Z,26.57
2022-08-08T14:10:04.278Z,26.79
2022-08-08T14:12:31.462Z,26.48
2022-08-08T14:15:02.896Z,27.23
2022-08-08T14:17:57.862Z,26.72
2022-08-08T14:20:56.170Z,26.74
2022-08-08T14:24:04.343Z,27.55
2022-08-08T14:26:21.764Z,27.46
2022-08-08T14:28:58.293Z,25.81
2022-08-08T14:32:05.833Z,26.48
2022-08-08T14:34:22.931Z,26.72
2022-08-08T14:36:54.736Z,27.14
2022-08-08T14:39:24.903Z,26.48
2022-08-08T14:42:07.591Z,27.02
2022-08-08T14:44:39.425Z,27.11
2022-08-08T14:47:17.170Z,27.08
2022-08-08T14:50:06.366Z,27.35
2022-08-08T14:52:46.621Z,27.49
2022-08-08T14:55:16.381Z,27.51
2022-08-08T14:58:05.851Z,26.36
2022-08-08T15:00:40.036Z,26.54
2022-08-08T15:03:16.068Z,27.03
2022-08-08T15:05:54.200Z,27.05
2022-08-08T15:08:34.433Z,27.56
2022-08-08T15:11:06.556Z,28.09
2022-08-08T15:13:41.012Z,26.57
2022-08-08T15:16:24.097Z,26.66
2022-08-08T15:18:52.945Z,26.90
2022-08-08T15:21:21.607Z,27.70
2022-08-08T15:23:52.104Z,27.22
2022-08-08T15:26:25.566Z,26.22
2022-08-08T15:28:54.592Z,25.47
2022-08-08T15:31:55.583Z,27.48
2022-08-08T15:34:29.130Z,29.32
2022-08-08T15:37:03.304Z,28.63
2022-08-08T15:39:38.185Z,29.01
2022-08-08T15:42:13.456Z,28.55
2022-08-08T15:44:53.197Z,29.05
2022-08-08T15:47:22.734Z,28.69
2022-08-08T15:49:53.360Z,28.41
2022-08-08T15:52:25.076Z,28.91
2022-08-08T15:54:56.236Z,29.16
2022-08-08T15:57:24.688Z,29.00
2022-08-08T16:00:05.177Z,28.22
2022-08-08T16:02:50.783Z,28.02
2022-08-08T16:05:23.813Z,28.64
2022-08-08T16:07:54.537Z,28.14
2022-08-08T16:13:02.562Z,28.47
2022-08-08T16:13:30.991Z,30.11
2022-08-08T16:16:12.881Z,30.22
2022-08-08T16:18:56.723Z,29.33
2022-08-08T16:21:33.953Z,30.23
2022-08-08T16:24:04.357Z,30.17
2022-08-08T16:26:37.349Z,30.17
2022-08-08T16:29:15.564Z,30.48
2022-08-08T16:31:48.872Z,31.61
2022-08-08T16:34:21.921Z,31.31
2022-08-08T16:36:54.646Z,31.96
2022-08-08T16:39:59.478Z,32.13
2022-08-08T16:42:13.919Z,32.30
2022-08-08T16:44:54.370Z,31.33
2022-08-08T16:47:40.069Z,31.11
2022-08-08T16:50:15.375Z,31.61
2022-08-08T16:55:04.699Z,31.11
2022-08-08T16:55:55.988Z,30.83
2022-08-08T16:58:32.673Z,31.07
2022-08-08T17:01:09.229Z,30.84
2022-08-08T17:04:00.519Z,30.92
2022-08-08T17:06:43.694Z,30.03
2022-08-08T17:09:15.014Z,29.52
2022-08-08T17:11:49.230Z,30.35
2022-08-08T17:14:34.307Z,31.20
2022-08-08T17:17:04.842Z,30.28
2022-08-08T17:19:40.832Z,29.94
2022-08-08T17:22:10.987Z,30.44
2022-08-08T17:24:41.473Z,30.58
2022-08-08T17:27:10.545Z,31.49
2022-08-08T17:29:43.674Z,32.21
2022-08-08T17:32:28.741Z,32.85
2022-08-08T17:35:55.799Z,32.06
2022-08-08T17:37:53.359Z,32.23
2022-08-08T17:40:22.162Z,32.62
2022-08-08T17:42:51.990Z,31.99
2022-08-08T17:45:24.134Z,31.76
2022-08-08T17:47:54.725Z,32.86
2022-08-08T17:50:23.878Z,32.03
2022-08-08T17:52:54.023Z,32.35
2022-08-08T17:56:06.149Z,32.99
2022-08-08T17:58:16.454Z,33.63
2022-08-08T18:00:56.119Z,32.52
2022-08-08T18:03:25.565Z,30.09
2022-08-08T18:05:54.152Z,29.72
2022-08-08T18:08:25.389Z,30.71
2022-08-08T18:11:15.145Z,30.99
2022-08-08T18:13:46.018Z,30.87
2022-08-08T18:16:22.813Z,28.99
2022-08-08T18:18:55.939Z,26.59
2022-08-08T18:22:00.301Z,25.20
2022-08-08T18:24:18.874Z,23.87
2022-08-08T18:26:53.746Z,23.25
2022-08-08T18:29:33.329Z,23.07
2022-08-08T18:32:06.626Z,23.16
2022-08-08T18:34:36.300Z,22.90
2022-08-08T18:37:07.957Z,22.94
2022-08-08T18:39:41.888Z,22.81
2022-08-08T18:42:16.667Z,22.88
2022-08-08T18:44:55.483Z,22.60
2022-08-08T18:47:28.021Z,22.48
2022-08-08T18:50:00.035Z,22.38
2022-08-08T18:52:33.664Z,22.06
2022-08-08T18:55:10.167Z,21.88
2022-08-08T18:57:43.211Z,21.94
2022-08-08T19:00:15.681Z,21.64
2022-08-08T19:02:55.854Z,21.47
2022-08-08T19:05:31.950Z,21.87
2022-08-08T19:08:25.899Z,21.68
2022-08-08T19:10:59.717Z,21.71
2022-08-08T19:13:53.757Z,21.63
2022-08-08T19:16:20.340Z,21.47
2022-08-08T19:19:02.446Z,21.43
2022-08-08T19:21:32.930Z,21.28
2022-08-08T19:24:05.645Z,21.48
2022-08-08T19:26:37.426Z,21.55
2022-08-08T19:29:06.829Z,21.43
2022-08-08T19:31:36.140Z,21.47
2022-08-08T19:34:30.047Z,21.20
2022-08-08T19:36:59.230Z,20.82
2022-08-08T19:39:35.183Z,20.73
2022-08-08T19:42:04.892Z,20.77
2022-08-08T19:44:42.822Z,20.62
2022-08-08T19:47:15.012Z,20.68
2022-08-08T19:49:59.993Z,20.69
2022-08-08T19:52:34.822Z,20.43
2022-08-08T19:55:09.416Z,20.31
2022-08-08T19:57:41.250Z,20.13
2022-08-08T20:00:29.222Z,20.16
2022-08-08T20:02:58.787Z,20.18
2022-08-08T20:06:15.203Z,20.15
2022-08-08T20:08:39.459Z,20.20
2022-08-08T20:11:05.725Z,19.99
2022-08-08T20:14:32.284Z,19.89
2022-08-08T20:16:22.888Z,19.89
2022-08-08T20:18:58.570Z,19.91
2022-08-08T20:21:32.045Z,20.10
2022-08-08T20:24:07.703Z,20.02
2022-08-08T20:26:38.254Z,19.99
2022-08-08T20:29:07.137Z,20.01
2022-08-08T20:32:07.389Z,20.01
2022-08-08T20:34:29.278Z,19.97
2022-08-08T20:37:03.155Z,19.81
2022-08-08T20:39:51.687Z,19.72
2022-08-08T20:42:54.863Z,19.57
2022-08-08T20:45:13.585Z,19.54
2022-08-08T20:48:02.539Z,19.49
2022-08-08T20:50:34.430Z,19.60
2022-08-08T20:53:10.899Z,19.64
2022-08-08T20:55:51.208Z,19.67
2022-08-08T20:58:23.367Z,19.57
2022-08-08T21:00:52.085Z,19.50
2022-08-08T21:03:20.675Z,19.54
2022-08-08T21:05:59.491Z,19.43
2022-08-08T21:08:36.996Z,19.32
2022-08-08T21:11:17.965Z,19.22
2022-08-08T21:14:07.694Z,19.27
2022-08-08T21:16:36.577Z,19.32
2022-08-08T21:19:05.086Z,19.29
2022-08-08T21:21:42.682Z,19.37
2022-08-08T21:24:26.922Z,19.53
2022-08-08T21:27:00.288Z,19.36
2022-08-08T21:30:04.591Z,19.43
2022-08-08T21:32:25.728Z,19.28
2022-08-08T21:34:56.597Z,19.14
2022-08-08T21:37:53.963Z,19.18
2022-08-08T21:40:30.864Z,19.19
2022-08-08T21:43:00.369Z,19.33
2022-08-08T21:48:00.557Z,19.25
2022-08-08T21:48:22.039Z,19.30
2022-08-08T21:50:52.738Z,19.29
2022-08-08T21:54:32.313Z,19.22
2022-08-08T21:56:30.380Z,19.09
2022-08-08T21:59:00.556Z,19.07
2022-08-08T22:01:41.133Z,19.10
2022-08-08T22:04:11.585Z,19.08
2022-08-08T22:06:40.954Z,18.99
2022-08-08T22:09:10.593Z,18.92
2022-08-08T22:12:02.699Z,18.97
2022-08-08T22:14:29.399Z,18.92
2022-08-08T22:17:01.029Z,18.90
2022-08-08T22:20:12.886Z,18.85
2022-08-08T22:22:44.794Z,18.85
2022-08-08T22:25:26.900Z,18.89
2022-08-08T22:29:14.174Z,18.77
2022-08-08T22:31:08.495Z,18.69
2022-08-08T22:34:13.911Z,18.71
2022-08-08T22:36:32.352Z,18.59
2022-08-08T22:39:06.639Z,18.45
2022-08-08T22:41:35.671Z,18.36
2022-08-08T22:44:09.694Z,18.33
2022-08-08T22:46:39.827Z,18.35
2022-08-08T22:49:09.970Z,18.36
2022-08-08T22:51:42.548Z,18.39
2022-08-08T22:54:30.809Z,18.43
2022-08-08T22:57:01.922Z,18.52
2022-08-08T22:59:59.149Z,18.57
2022-08-08T23:02:30.166Z,18.63
2022-08-08T23:05:02.186Z,18.65
2022-08-08T23:07:51.464Z,18.58
2022-08-08T23:10:25.242Z,18.57
2022-08-08T23:12:55.232Z,18.60
2022-08-08T23:16:40.983Z,18.60
2022-08-08T23:18:17.269Z,18.55
2022-08-08T23:20:54.654Z,18.62
2022-08-08T23:23:23.818Z,18.43
2022-08-08T23:25:52.712Z,18.31
2022-08-08T23:28:24.940Z,18.32
2022-08-08T23:30:55.381Z,18.27
2022-08-08T23:34:16.431Z,18.30
2022-08-08T23:36:12.491Z,18.19
2022-08-08T23:38:44.067Z,18.29
2022-08-08T23:41:23.207Z,18.31
2022-08-08T23:43:56.835Z,18.23
2022-08-08T23:49:00.412Z,18.16
2022-08-08T23:49:18.999Z,18.07
2022-08-08T23:52:04.338Z,17.94
2022-08-08T23:54:41.578Z,17.96
2022-08-08T23:57:25.128Z,17.87
2022-08-08T23:59:55.597Z,17.91
